Time,TemperatureF,DewpointF,PressureIn,WindDirection,WindDirectionDegrees,WindSpeedMPH,WindSpeedGustMPH,Humidity,HourlyPrecipIn,Conditions,Clouds,dailyrainin,SoftwareType,DateUTC
2013-02-22 00:00:00,24.5,21.2,30.01,WNW,293,4.5,7.6,87,0.00,,,0.00,WUHU216HW,2013-02-22 06:00:00,
2013-02-22 00:05:00,24.3,21.0,30.01,WNW,293,4.3,6.7,87,0.00,,,0.00,WUHU216HW,2013-02-22 06:05:00,
2013-02-22 00:10:00,24.3,21.0,30.01,WNW,293,4.7,6.7,87,0.00,,,0.00,WUHU216HW,2013-02-22 06:10:00,
2013-02-22 00:15:00,24.1,20.8,30.00,WNW,293,7.2,9.1,87,0.00,,,0.00,WUHU216HW,2013-02-22 06:15:00,
2013-02-22 00:20:00,24.1,20.8,30.00,WNW,293,5.6,9.1,87,0.00,,,0.00,WUHU216HW,2013-02-22 06:20:00,
2013-02-22 00:25:00,24.1,20.8,29.99,WNW,293,6.5,7.2,87,0.00,,,0.00,WUHU216HW,2013-02-22 06:25:00,
2013-02-22 00:30:00,24.1,20.8,29.99,WNW,293,5.2,6.7,87,0.00,,,0.00,WUHU216HW,2013-02-22 06:30:00,
2013-02-22 00:35:00,24.1,20.8,29.99,WNW,293,5.9,7.6,87,0.00,,,0.00,WUHU216HW,2013-02-22 06:35:00,
2013-02-22 00:40:00,24.1,21.1,29.99,WNW,293,4.8,7.6,88,0.00,,,0.00,WUHU216HW,2013-02-22 06:40:00,
2013-02-22 00:45:00,24.1,21.1,29.98,WNW,293,3.1,5.9,88,0.00,,,0.00,WUHU216HW,2013-02-22 06:45:00,
2013-02-22 00:50:00,24.1,21.1,29.98,WNW,293,3.0,5.6,88,0.00,,,0.00,WUHU216HW,2013-02-22 06:50:00,
2013-02-22 00:55:00,23.9,20.6,29.98,WNW,293,6.1,6.1,87,0.00,,,0.00,WUHU216HW,2013-02-22 06:55:00,
2013-02-22 01:00:00,23.8,20.7,29.98,WNW,293,3.5,6.1,88,0.00,,,0.00,WUHU216HW,2013-02-22 07:00:00,
2013-02-22 01:05:00,23.8,20.7,29.98,WNW,293,4.1,6.5,88,0.00,,,0.00,WUHU216HW,2013-02-22 07:05:00,
2013-02-22 01:10:00,23.8,20.7,29.97,WNW,293,6.7,6.7,88,0.00,,,0.00,WUHU216HW,2013-02-22 07:10:00,
2013-02-22 01:15:00,23.6,20.5,29.97,WNW,293,5.4,7.2,88,0.00,,,0.00,WUHU216HW,2013-02-22 07:15:00,
2013-02-22 01:20:00,23.6,20.8,29.96,WNW,293,5.6,9.1,89,0.00,,,0.00,WUHU216HW,2013-02-22 07:20:00,
2013-02-22 01:25:00,23.4,20.3,29.95,WNW,293,4.8,9.1,88,0.00,,,0.00,WUHU216HW,2013-02-22 07:25:00,
2013-02-22 01:30:00,23.4,20.3,29.96,WNW,293,5.3,9.4,88,0.00,,,0.00,WUHU216HW,2013-02-22 07:30:00,
2013-02-22 01:35:00,23.4,20.3,29.96,WNW,293,3.6,9.4,88,0.00,,,0.00,WUHU216HW,2013-02-22 07:35:00,
2013-02-22 01:40:00,23.4,20.3,29.95,WNW,293,5.6,7.6,88,0.00,,,0.00,WUHU216HW,2013-02-22 07:40:00,
2013-02-22 01:45:00,23.4,20.3,29.95,WNW,293,3.5,6.7,88,0.00,,,0.00,WUHU216HW,2013-02-22 07:45:00,
2013-02-22 01:50:00,23.4,20.3,29.94,WNW,293,5.6,6.7,88,0.00,,,0.00,WUHU216HW,2013-02-22 07:50:00,
2013-02-22 01:55:00,23.4,20.3,29.94,WNW,293,4.6,6.5,88,0.00,,,0.00,WUHU216HW,2013-02-22 07:55:00,
2013-02-22 02:00:00,23.4,20.6,29.94,WNW,293,2.6,6.5,89,0.00,,,0.00,WUHU216HW,2013-02-22 08:00:00,
2013-02-22 02:05:00,23.4,20.3,29.93,WNW,293,5.6,6.5,88,0.00,,,0.00,WUHU216HW,2013-02-22 08:05:00,
2013-02-22 02:10:00,23.4,20.3,29.93,WNW,293,4.7,8.3,88,0.00,,,0.00,WUHU216HW,2013-02-22 08:10:00,
2013-02-22 02:15:00,23.4,20.3,29.92,WNW,293,3.4,8.3,88,0.00,,,0.00,WUHU216HW,2013-02-22 08:15:00,
2013-02-22 02:20:00,23.6,20.5,29.92,WNW,293,4.5,7.0,88,0.00,,,0.00,WUHU216HW,2013-02-22 08:20:00,
2013-02-22 02:25:00,23.6,20.5,29.92,WNW,293,6.1,9.4,88,0.00,,,0.00,WUHU216HW,2013-02-22 08:25:00,
2013-02-22 02:30:00,23.6,20.5,29.92,WNW,293,6.7,9.4,88,0.00,,,0.00,WUHU216HW,2013-02-22 08:30:00,
2013-02-22 02:35:00,23.8,20.7,29.92,WNW,293,4.8,9.4,88,0.00,,,0.00,WUHU216HW,2013-02-22 08:35:00,
2013-02-22 02:40:00,23.8,20.7,29.91,WNW,293,4.2,7.8,88,0.00,,,0.00,WUHU216HW,2013-02-22 08:40:00,
2013-02-22 02:45:00,23.8,20.7,29.91,WNW,293,7.0,12.8,88,0.00,,,0.00,WUHU216HW,2013-02-22 08:45:00,
2013-02-22 02:50:00,23.8,20.7,29.91,WNW,293,4.1,12.8,88,0.00,,,0.00,WUHU216HW,2013-02-22 08:50:00,
2013-02-22 02:55:00,23.8,20.7,29.91,WNW,293,7.0,8.0,88,0.00,,,0.00,WUHU216HW,2013-02-22 08:55:00,
2013-02-22 03:00:00,23.8,20.7,29.91,WNW,293,3.7,8.0,88,0.00,,,0.00,WUHU216HW,2013-02-22 09:00:00,
2013-02-22 03:05:00,23.8,20.7,29.91,WNW,293,2.6,7.0,88,0.00,,,0.00,WUHU216HW,2013-02-22 09:05:00,
2013-02-22 03:10:00,23.8,20.7,29.91,WNW,293,6.5,7.8,88,0.00,,,0.00,WUHU216HW,2013-02-22 09:10:00,
2013-02-22 03:15:00,23.8,20.4,29.91,WNW,293,2.6,7.8,87,0.00,,,0.00,WUHU216HW,2013-02-22 09:15:00,
2013-02-22 03:20:00,23.8,20.7,29.91,WNW,293,4.8,6.5,88,0.00,,,0.00,WUHU216HW,2013-02-22 09:20:00,
2013-02-22 03:25:00,23.6,20.5,29.90,WNW,293,5.6,11.0,88,0.00,,,0.00,WUHU216HW,2013-02-22 09:25:00,
2013-02-22 03:30:00,23.6,20.5,29.90,WNW,293,3.5,11.0,88,0.00,,,0.00,WUHU216HW,2013-02-22 09:30:00,
2013-02-22 03:35:00,23.4,20.3,29.89,WNW,293,3.7,5.2,88,0.00,,,0.00,WUHU216HW,2013-02-22 09:35:00,
2013-02-22 03:40:00,23.4,20.6,29.90,WNW,293,2.6,6.1,89,0.00,,,0.00,WUHU216HW,2013-02-22 09:40:00,
2013-02-22 03:45:00,23.4,20.6,29.89,WNW,293,3.5,6.1,89,0.00,,,0.00,WUHU216HW,2013-02-22 09:45:00,
2013-02-22 03:50:00,23.4,20.6,29.89,WNW,293,4.3,5.4,89,0.00,,,0.00,WUHU216HW,2013-02-22 09:50:00,
2013-02-22 03:55:00,23.4,20.3,29.89,WNW,293,2.3,6.5,88,0.00,,,0.00,WUHU216HW,2013-02-22 09:55:00,
2013-02-22 04:00:00,23.6,20.5,29.89,WNW,293,4.3,7.6,88,0.00,,,0.00,WUHU216HW,2013-02-22 10:00:00,
2013-02-22 04:05:00,23.6,20.5,29.89,WNW,293,3.1,7.6,88,0.00,,,0.00,WUHU216HW,2013-02-22 10:05:00,
2013-02-22 04:10:00,23.6,20.5,29.89,WNW,293,5.6,5.6,88,0.00,,,0.00,WUHU216HW,2013-02-22 10:10:00,
2013-02-22 04:15:00,23.8,20.7,29.89,WNW,293,2.8,5.6,88,0.00,,,0.00,WUHU216HW,2013-02-22 10:15:00,
2013-02-22 04:20:00,23.9,21.2,29.89,WNW,293,4.3,5.6,89,0.00,,,0.00,WUHU216HW,2013-02-22 10:20:00,
2013-02-22 04:25:00,23.9,20.9,29.89,WNW,293,5.2,5.9,88,0.00,,,0.00,WUHU216HW,2013-02-22 10:25:00,
2013-02-22 04:30:00,24.1,21.1,29.88,WNW,293,2.1,7.2,88,0.00,,,0.00,WUHU216HW,2013-02-22 10:30:00,
2013-02-22 04:35:00,24.1,21.1,29.88,WNW,293,4.1,7.2,88,0.00,,,0.00,WUHU216HW,2013-02-22 10:35:00,
2013-02-22 04:40:00,24.1,21.1,29.88,WNW,293,5.4,5.6,88,0.00,,,0.00,WUHU216HW,2013-02-22 10:40:00,
2013-02-22 04:45:00,24.1,21.1,29.88,WNW,293,3.0,5.6,88,0.00,,,0.00,WUHU216HW,2013-02-22 10:45:00,
2013-02-22 04:50:00,24.3,21.5,29.88,WNW,293,8.3,8.3,89,0.00,,,0.00,WUHU216HW,2013-02-22 10:50:00,
2013-02-22 04:55:00,24.3,21.2,29.88,WNW,293,4.6,8.3,88,0.00,,,0.00,WUHU216HW,2013-02-22 10:55:00,
2013-02-22 05:00:00,24.5,21.4,29.88,WNW,293,5.2,8.3,88,0.00,,,0.00,WUHU216HW,2013-02-22 11:00:00,
2013-02-22 05:05:00,24.5,21.4,29.88,WNW,293,6.4,11.0,88,0.00,,,0.00,WUHU216HW,2013-02-22 11:05:00,
2013-02-22 05:10:00,24.7,21.6,29.88,WNW,293,4.8,11.0,88,0.00,,,0.00,WUHU216HW,2013-02-22 11:10:00,
2013-02-22 05:15:00,24.8,21.5,29.88,WNW,293,3.8,9.1,87,0.00,,,0.00,WUHU216HW,2013-02-22 11:15:00,
2013-02-22 05:20:00,24.8,21.5,29.87,WNW,293,3.0,9.1,87,0.00,,,0.00,WUHU216HW,2013-02-22 11:20:00,
2013-02-22 05:25:00,24.8,21.5,29.87,WNW,293,9.9,12.8,87,0.00,,,0.00,WUHU216HW,2013-02-22 11:25:00,
2013-02-22 05:30:00,24.8,21.5,29.87,WNW,293,5.1,12.8,87,0.00,,,0.00,WUHU216HW,2013-02-22 11:30:00,
2013-02-22 05:35:00,24.8,21.5,29.87,WNW,293,5.2,9.7,87,0.00,,,0.00,WUHU216HW,2013-02-22 11:35:00,
2013-02-22 05:40:00,25.0,21.7,29.87,WNW,293,5.2,7.6,87,0.00,,,0.00,WUHU216HW,2013-02-22 11:40:00,
2013-02-22 05:45:00,25.0,21.4,29.86,WNW,293,3.0,7.6,86,0.00,,,0.00,WUHU216HW,2013-02-22 11:45:00,
2013-02-22 05:50:00,25.0,21.7,29.86,WNW,293,4.3,5.9,87,0.00,,,0.00,WUHU216HW,2013-02-22 11:50:00,
2013-02-22 05:55:00,25.2,21.6,29.86,WNW,293,3.5,9.4,86,0.00,,,0.00,WUHU216HW,2013-02-22 11:55:00,
2013-02-22 06:00:00,25.2,21.9,29.86,WNW,293,6.1,9.7,87,0.00,,,0.00,WUHU216HW,2013-02-22 12:00:00,
2013-02-22 06:05:00,25.2,21.9,29.86,WNW,293,7.6,11.8,87,0.00,,,0.00,WUHU216HW,2013-02-22 12:05:00,
2013-02-22 06:10:00,25.2,21.9,29.86,WNW,293,5.6,11.8,87,0.00,,,0.00,WUHU216HW,2013-02-22 12:10:00,
2013-02-22 06:15:00,25.2,21.9,29.86,WNW,293,7.7,10.2,87,0.00,,,0.00,WUHU216HW,2013-02-22 12:15:00,
2013-02-22 06:20:00,25.2,21.9,29.86,WNW,293,2.6,10.2,87,0.00,,,0.00,WUHU216HW,2013-02-22 12:20:00,
2013-02-22 06:25:00,25.4,22.1,29.85,WNW,293,6.6,9.4,87,0.00,,,0.00,WUHU216HW,2013-02-22 12:25:00,
2013-02-22 06:30:00,25.4,22.1,29.86,WNW,293,4.1,8.0,87,0.00,,,0.00,WUHU216HW,2013-02-22 12:30:00,
2013-02-22 06:35:00,25.6,22.2,29.86,WNW,293,6.0,10.4,87,0.00,,,0.00,WUHU216HW,2013-02-22 12:35:00,
2013-02-22 06:40:00,25.6,22.2,29.86,WNW,293,10.0,10.4,87,0.00,,,0.00,WUHU216HW,2013-02-22 12:40:00,
2013-02-22 06:45:00,25.6,22.2,29.86,WNW,293,5.4,10.2,87,0.00,,,0.00,WUHU216HW,2013-02-22 12:45:00,
2013-02-22 06:50:00,25.6,22.2,29.86,WNW,293,5.8,10.0,87,0.00,,,0.00,WUHU216HW,2013-02-22 12:50:00,
2013-02-22 06:55:00,25.6,22.2,29.85,WNW,293,5.4,9.4,87,0.00,,,0.00,WUHU216HW,2013-02-22 12:55:00,
2013-02-22 07:00:00,25.7,22.4,29.86,WNW,293,6.3,9.4,87,0.00,,,0.00,WUHU216HW,2013-02-22 13:00:00,
2013-02-22 07:05:00,25.9,22.6,29.86,WNW,293,5.3,9.4,87,0.00,,,0.00,WUHU216HW,2013-02-22 13:05:00,
2013-02-22 07:10:00,25.9,22.6,29.86,WNW,293,4.2,9.1,87,0.00,,,0.00,WUHU216HW,2013-02-22 13:10:00,
2013-02-22 07:15:00,26.1,22.8,29.86,WNW,293,8.0,9.4,87,0.00,,,0.00,WUHU216HW,2013-02-22 13:15:00,
2013-02-22 07:20:00,26.1,22.8,29.85,WNW,293,5.2,9.4,87,0.00,,,0.00,WUHU216HW,2013-02-22 13:20:00,
2013-02-22 07:25:00,26.3,23.0,29.85,WNW,293,7.6,10.2,87,0.00,,,0.00,WUHU216HW,2013-02-22 13:25:00,
2013-02-22 07:31:00,26.3,23.0,29.85,WNW,293,6.3,10.2,87,0.00,,,0.00,WUHU216HW,2013-02-22 13:31:00,
2013-02-22 07:36:00,26.5,23.0,29.85,WNW,293,4.1,9.4,87,0.00,,,0.00,WUHU216HW,2013-02-22 13:36:00,
2013-02-22 07:41:00,26.5,23.0,29.84,West,278,7.5,12.6,87,0.00,,,0.00,WUHU216HW,2013-02-22 13:41:00,
2013-02-22 07:46:00,26.6,23.2,29.84,West,270,6.5,14.5,87,0.00,,,0.00,WUHU216HW,2013-02-22 13:46:00,
2013-02-22 07:51:00,26.6,23.2,29.85,West,270,11.3,14.5,87,0.00,,,0.00,WUHU216HW,2013-02-22 13:51:00,
2013-02-22 07:56:00,26.8,23.4,29.85,West,270,7.8,11.3,87,0.00,,,0.00,WUHU216HW,2013-02-22 13:56:00,
2013-02-22 08:01:00,27.0,23.6,29.85,West,270,7.2,11.8,87,0.00,,,0.00,WUHU216HW,2013-02-22 14:01:00,
2013-02-22 08:05:00,27.0,23.6,29.84,West,270,6.1,11.8,87,0.00,,,0.00,WUHU216HW,2013-02-22 14:05:00,
2013-02-22 08:11:00,27.2,23.8,29.84,West,270,4.7,7.8,87,0.00,,,0.00,WUHU216HW,2013-02-22 14:11:00,
2013-02-22 08:16:00,27.2,23.8,29.84,West,270,5.4,9.1,87,0.00,,,0.00,WUHU216HW,2013-02-22 14:16:00,
2013-02-22 08:21:00,27.4,23.9,29.84,West,270,3.1,9.1,87,0.00,,,0.00,WUHU216HW,2013-02-22 14:21:00,
2013-02-22 08:26:00,27.7,24.3,29.84,West,270,5.9,8.3,87,0.00,,,0.00,WUHU216HW,2013-02-22 14:26:00,
2013-02-22 08:30:00,27.7,24.3,29.84,West,270,8.3,11.0,87,0.00,,,0.00,WUHU216HW,2013-02-22 14:30:00,
2013-02-22 08:35:00,27.7,24.3,29.84,West,270,6.2,11.0,87,0.00,,,0.00,WUHU216HW,2013-02-22 14:35:00,
2013-02-22 08:40:00,27.9,24.2,29.85,West,270,5.4,10.2,86,0.00,,,0.00,WUHU216HW,2013-02-22 14:40:00,
2013-02-22 08:45:00,28.1,24.7,29.84,West,270,7.6,10.2,87,0.00,,,0.00,WUHU216HW,2013-02-22 14:45:00,
2013-02-22 08:50:00,28.1,24.7,29.85,West,270,6.6,8.9,87,0.00,,,0.00,WUHU216HW,2013-02-22 14:50:00,
2013-02-22 08:55:00,28.3,24.8,29.85,West,270,6.5,9.7,87,0.00,,,0.00,WUHU216HW,2013-02-22 14:55:00,
2013-02-22 09:00:00,28.4,25.0,29.85,West,270,4.3,9.7,87,0.00,,,0.00,WUHU216HW,2013-02-22 15:00:00,
2013-02-22 09:05:00,28.4,25.0,29.85,West,270,4.1,6.5,87,0.00,,,0.00,WUHU216HW,2013-02-22 15:05:00,
2013-02-22 09:10:00,28.6,24.9,29.85,West,270,3.0,6.5,86,0.00,,,0.00,WUHU216HW,2013-02-22 15:10:00,
2013-02-22 09:15:00,28.8,25.4,29.85,West,270,6.8,8.6,87,0.00,,,0.00,WUHU216HW,2013-02-22 15:15:00,
2013-02-22 09:20:00,28.8,25.1,29.85,West,270,2.4,8.6,86,0.00,,,0.00,WUHU216HW,2013-02-22 15:20:00,
2013-02-22 09:25:00,29.0,25.3,29.85,West,270,5.7,7.6,86,0.00,,,0.00,WUHU216HW,2013-02-22 15:25:00,
2013-02-22 09:30:00,29.2,25.5,29.85,West,270,5.9,7.6,86,0.00,,,0.00,WUHU216HW,2013-02-22 15:30:00,
2013-02-22 09:35:00,29.2,25.7,29.85,West,270,5.1,8.0,87,0.00,,,0.00,WUHU216HW,2013-02-22 15:35:00,
2013-02-22 09:40:00,29.2,25.7,29.85,West,270,4.8,8.3,87,0.00,,,0.00,WUHU216HW,2013-02-22 15:40:00,
2013-02-22 09:45:00,29.5,25.8,29.85,West,270,4.9,8.3,86,0.00,,,0.00,WUHU216HW,2013-02-22 15:45:00,
2013-02-22 09:50:00,29.7,26.3,29.84,West,270,5.4,8.9,87,0.00,,,0.00,WUHU216HW,2013-02-22 15:50:00,
2013-02-22 09:55:00,29.7,26.3,29.85,West,270,9.1,9.1,87,0.00,,,0.00,WUHU216HW,2013-02-22 15:55:00,
2013-02-22 10:00:00,29.9,26.5,29.85,West,270,7.7,10.2,87,0.00,,,0.00,WUHU216HW,2013-02-22 16:00:00,
2013-02-22 10:05:00,29.9,26.5,29.85,West,270,5.9,10.2,87,0.00,,,0.00,WUHU216HW,2013-02-22 16:05:00,
2013-02-22 10:10:00,30.1,26.6,29.85,West,270,5.6,8.3,87,0.00,,,0.00,WUHU216HW,2013-02-22 16:10:00,
2013-02-22 10:15:00,30.4,27.4,29.85,West,270,6.4,8.0,88,0.00,,,0.00,WUHU216HW,2013-02-22 16:15:00,
2013-02-22 10:20:00,30.6,27.6,29.85,West,270,5.9,9.1,88,0.00,,,0.00,WUHU216HW,2013-02-22 16:20:00,
2013-02-22 10:25:00,30.6,27.6,29.85,West,270,6.7,9.1,88,0.00,,,0.00,WUHU216HW,2013-02-22 16:25:00,
2013-02-22 10:30:00,31.0,27.9,29.85,West,270,8.3,10.2,88,0.00,,,0.00,WUHU216HW,2013-02-22 16:30:00,
2013-02-22 10:35:00,30.8,27.7,29.85,West,270,8.8,10.4,88,0.00,,,0.00,WUHU216HW,2013-02-22 16:35:00,
2013-02-22 10:40:00,31.0,27.9,29.85,West,270,8.0,11.8,88,0.00,,,0.00,WUHU216HW,2013-02-22 16:40:00,
2013-02-22 10:45:00,31.0,27.9,29.85,West,270,9.4,11.8,88,0.00,,,0.00,WUHU216HW,2013-02-22 16:45:00,
2013-02-22 10:50:00,31.1,28.1,29.85,West,270,5.8,9.4,88,0.00,,,0.00,WUHU216HW,2013-02-22 16:50:00,
2013-02-22 10:56:00,31.3,28.3,29.85,West,270,6.5,11.5,88,0.00,,,0.00,WUHU216HW,2013-02-22 16:56:00,
2013-02-22 11:01:00,31.3,28.3,29.85,West,270,6.5,11.5,88,0.00,,,0.00,WUHU216HW,2013-02-22 17:01:00,
2013-02-22 11:06:00,31.7,28.6,29.86,West,270,5.9,8.9,88,0.00,,,0.00,WUHU216HW,2013-02-22 17:06:00,
2013-02-22 11:11:00,31.7,28.6,29.86,West,270,4.8,8.9,88,0.00,,,0.00,WUHU216HW,2013-02-22 17:11:00,
2013-02-22 11:16:00,31.9,28.8,29.86,West,270,3.5,8.0,88,0.00,,,0.00,WUHU216HW,2013-02-22 17:16:00,
2013-02-22 11:21:00,32.0,29.0,29.86,West,270,4.4,7.0,88,0.00,,,0.00,WUHU216HW,2013-02-22 17:21:00,
2013-02-22 11:26:00,32.4,29.3,29.86,West,270,5.0,8.3,88,0.00,,,0.00,WUHU216HW,2013-02-22 17:26:00,
2013-02-22 11:31:00,32.6,29.4,29.86,West,270,4.6,8.3,88,0.00,,,0.00,WUHU216HW,2013-02-22 17:31:00,
2013-02-22 11:36:00,32.6,29.4,29.86,West,270,4.3,7.6,88,0.00,,,0.00,WUHU216HW,2013-02-22 17:36:00,
2013-02-22 11:41:00,32.9,29.8,29.86,South,180,7.0,7.0,88,0.00,,,0.00,WUHU216HW,2013-02-22 17:41:00,
2013-02-22 11:46:00,33.1,29.6,29.85,South,172,3.6,8.3,87,0.00,,,0.00,WUHU216HW,2013-02-22 17:46:00,
2013-02-22 11:51:00,33.3,29.8,29.85,SSE,166,4.7,8.3,87,0.00,,,0.00,WUHU216HW,2013-02-22 17:51:00,
2013-02-22 11:56:00,33.3,29.8,29.85,South,180,3.0,6.5,87,0.00,,,0.00,WUHU216HW,2013-02-22 17:56:00,
2013-02-22 12:01:00,33.5,30.0,29.85,South,183,2.7,4.6,87,0.00,,,0.00,WUHU216HW,2013-02-22 18:01:00,
2013-02-22 12:06:00,33.5,30.2,29.85,SW,225,2.6,4.6,88,0.00,,,0.00,WUHU216HW,2013-02-22 18:06:00,
2013-02-22 12:11:00,33.5,30.2,29.85,South,180,3.0,4.6,88,0.00,,,0.00,WUHU216HW,2013-02-22 18:11:00,
2013-02-22 12:16:00,33.5,30.2,29.85,SSW,192,2.1,5.4,88,0.00,,,0.00,WUHU216HW,2013-02-22 18:16:00,
2013-02-22 12:21:00,33.7,30.4,29.85,SSW,199,2.6,5.4,88,0.00,,,0.00,WUHU216HW,2013-02-22 18:21:00,
2013-02-22 12:26:00,33.8,30.6,29.85,South,190,2.7,4.1,88,0.00,,,0.00,WUHU216HW,2013-02-22 18:26:00,
2013-02-22 12:31:00,33.7,30.4,29.84,SSW,212,2.0,5.9,88,0.00,,,0.00,WUHU216HW,2013-02-22 18:31:00,
2013-02-22 12:36:00,33.8,30.6,29.84,SSE,167,4.9,5.9,88,0.00,,,0.00,WUHU216HW,2013-02-22 18:36:00,
2013-02-22 12:41:00,33.8,30.9,29.84,South,180,4.8,7.2,89,0.00,,,0.00,WUHU216HW,2013-02-22 18:41:00,
2013-02-22 12:46:00,34.0,31.1,29.84,SSW,203,7.2,7.2,89,0.00,,,0.00,WUHU216HW,2013-02-22 18:46:00,
2013-02-22 12:51:00,34.0,31.1,29.84,SSE,158,3.7,7.2,89,0.00,,,0.00,WUHU216HW,2013-02-22 18:51:00,
2013-02-22 12:56:00,34.2,31.2,29.84,South,180,5.6,7.2,89,0.00,,,0.00,WUHU216HW,2013-02-22 18:56:00,
2013-02-22 13:01:00,34.2,31.2,29.84,SSW,203,2.4,7.0,89,0.00,,,0.00,WUHU216HW,2013-02-22 19:01:00,
2013-02-22 13:06:00,34.2,31.5,29.84,South,180,4.1,7.0,90,0.00,,,0.00,WUHU216HW,2013-02-22 19:06:00,
2013-02-22 13:11:00,34.2,31.5,29.84,SSW,205,3.3,5.6,90,0.00,,,0.00,WUHU216HW,2013-02-22 19:11:00,
2013-02-22 13:16:00,34.4,31.4,29.84,South,190,5.2,8.3,89,0.00,,,0.00,WUHU216HW,2013-02-22 19:16:00,
2013-02-22 13:21:00,34.6,31.9,29.84,SSW,207,3.6,8.3,90,0.00,,,0.00,WUHU216HW,2013-02-22 19:21:00,
2013-02-22 13:26:00,34.6,31.6,29.83,SW,215,2.1,6.5,89,0.00,,,0.00,WUHU216HW,2013-02-22 19:26:00,
2013-02-22 13:31:00,34.9,32.0,29.83,South,180,4.6,6.5,89,0.00,,,0.00,WUHU216HW,2013-02-22 19:31:00,
2013-02-22 13:36:00,35.1,32.1,29.84,SSW,203,6.7,6.7,89,0.00,,,0.00,WUHU216HW,2013-02-22 19:36:00,
2013-02-22 13:41:00,35.3,32.3,29.83,SSW,202,2.3,6.7,89,0.00,,,0.00,WUHU216HW,2013-02-22 19:41:00,
2013-02-22 13:46:00,35.3,32.3,29.84,SSW,207,4.7,6.7,89,0.00,,,0.00,WUHU216HW,2013-02-22 19:46:00,
2013-02-22 13:51:00,35.3,32.3,29.84,SW,225,4.1,7.2,89,0.00,,,0.00,WUHU216HW,2013-02-22 19:51:00,
2013-02-22 13:56:00,35.3,32.1,29.83,South,180,3.7,7.2,88,0.00,,,0.00,WUHU216HW,2013-02-22 19:56:00,
2013-02-22 14:01:00,35.1,31.9,29.83,SSW,211,4.3,5.6,88,0.00,,,0.00,WUHU216HW,2013-02-22 20:01:00,
2013-02-22 14:06:00,35.1,31.9,29.83,SW,216,2.7,6.5,88,0.00,,,0.00,WUHU216HW,2013-02-22 20:06:00,
2013-02-22 14:11:00,34.9,31.7,29.84,SW,228,4.5,6.5,88,0.00,,,0.00,WUHU216HW,2013-02-22 20:11:00,
2013-02-22 14:16:00,34.9,32.0,29.84,SSW,208,4.3,6.5,89,0.00,,,0.00,WUHU216HW,2013-02-22 20:16:00,
2013-02-22 14:21:00,34.7,31.8,29.84,SSW,210,4.9,8.3,89,0.00,,,0.00,WUHU216HW,2013-02-22 20:21:00,
2013-02-22 14:26:00,34.7,31.8,29.84,SW,225,4.1,8.3,89,0.00,,,0.00,WUHU216HW,2013-02-22 20:26:00,
2013-02-22 14:31:00,34.6,31.6,29.84,SW,226,2.8,8.9,89,0.00,,,0.00,WUHU216HW,2013-02-22 20:31:00,
2013-02-22 14:36:00,34.7,31.8,29.84,SSW,203,5.6,8.9,89,0.00,,,0.00,WUHU216HW,2013-02-22 20:36:00,
2013-02-22 14:41:00,34.6,31.6,29.84,SSW,203,2.6,8.3,89,0.00,,,0.00,WUHU216HW,2013-02-22 20:41:00,
2013-02-22 14:46:00,34.6,31.3,29.84,SW,225,3.5,11.0,88,0.00,,,0.00,WUHU216HW,2013-02-22 20:46:00,
2013-02-22 14:51:00,34.6,31.3,29.84,SW,222,3.2,11.0,88,0.00,,,0.00,WUHU216HW,2013-02-22 20:51:00,
2013-02-22 14:56:00,34.6,31.6,29.85,SW,221,2.1,8.3,89,0.00,,,0.00,WUHU216HW,2013-02-22 20:56:00,
2013-02-22 15:01:00,34.6,31.6,29.85,West,270,5.9,5.9,89,0.00,,,0.00,WUHU216HW,2013-02-22 21:01:00,
2013-02-22 15:06:00,34.4,31.4,29.85,SW,232,2.9,5.9,89,0.00,,,0.00,WUHU216HW,2013-02-22 21:06:00,
2013-02-22 15:11:00,34.6,31.6,29.85,SW,223,2.4,5.9,89,0.00,,,0.00,WUHU216HW,2013-02-22 21:11:00,
2013-02-22 15:16:00,34.7,31.5,29.85,SW,225,3.0,4.3,88,0.00,,,0.00,WUHU216HW,2013-02-22 21:16:00,
2013-02-22 15:21:00,34.7,31.5,29.85,SSW,210,2.7,4.3,88,0.00,,,0.00,WUHU216HW,2013-02-22 21:21:00,
2013-02-22 15:26:00,34.6,31.3,29.85,SSW,203,4.6,7.2,88,0.00,,,0.00,WUHU216HW,2013-02-22 21:26:00,
2013-02-22 15:31:00,34.6,31.0,29.86,South,180,6.5,11.0,87,0.00,,,0.00,WUHU216HW,2013-02-22 21:31:00,
2013-02-22 15:36:00,34.6,31.0,29.86,SSW,203,4.3,11.0,87,0.00,,,0.00,WUHU216HW,2013-02-22 21:36:00,
2013-02-22 15:41:00,34.6,31.0,29.86,SW,225,2.4,7.6,87,0.00,,,0.00,WUHU216HW,2013-02-22 21:41:00,
2013-02-22 15:46:00,34.4,30.8,29.86,SW,225,2.6,4.3,87,0.00,,,0.00,WUHU216HW,2013-02-22 21:46:00,
2013-02-22 15:51:00,34.4,30.5,29.86,SW,214,3.7,9.7,86,0.00,,,0.00,WUHU216HW,2013-02-22 21:51:00,
2013-02-22 15:56:00,34.4,30.5,29.86,SW,224,2.4,9.7,86,0.00,,,0.00,WUHU216HW,2013-02-22 21:56:00,
2013-02-22 16:01:00,34.4,30.5,29.86,SW,220,2.3,4.1,86,0.00,,,0.00,WUHU216HW,2013-02-22 22:01:00,
2013-02-22 16:06:00,34.4,30.5,29.86,SW,225,3.0,5.2,86,0.00,,,0.00,WUHU216HW,2013-02-22 22:06:00,
2013-02-22 16:11:00,34.6,30.7,29.86,SW,225,3.5,5.4,86,0.00,,,0.00,WUHU216HW,2013-02-22 22:11:00,
2013-02-22 16:16:00,34.4,30.2,29.86,West,270,3.7,5.4,85,0.00,,,0.00,WUHU216HW,2013-02-22 22:16:00,
2013-02-22 16:21:00,34.4,30.2,29.87,WSW,239,4.6,6.7,85,0.00,,,0.00,WUHU216HW,2013-02-22 22:21:00,
2013-02-22 16:26:00,34.4,30.2,29.86,WSW,248,2.6,6.7,85,0.00,,,0.00,WUHU216HW,2013-02-22 22:26:00,
2013-02-22 16:31:00,34.2,30.1,29.86,SW,225,1.9,5.2,85,0.00,,,0.00,WUHU216HW,2013-02-22 22:31:00,
2013-02-22 16:36:00,34.2,29.8,29.86,SW,231,2.9,5.2,84,0.00,,,0.00,WUHU216HW,2013-02-22 22:36:00,
2013-02-22 16:41:00,34.2,30.1,29.86,SW,225,3.4,4.6,85,0.00,,,0.00,WUHU216HW,2013-02-22 22:41:00,
2013-02-22 16:46:00,34.0,29.9,29.87,SSW,203,4.1,4.6,85,0.00,,,0.00,WUHU216HW,2013-02-22 22:46:00,
2013-02-22 16:51:00,34.0,29.9,29.87,West,270,4.3,4.3,85,0.00,,,0.00,WUHU216HW,2013-02-22 22:51:00,
2013-02-22 16:56:00,34.0,29.6,29.87,SW,225,4.8,4.8,84,0.00,,,0.00,WUHU216HW,2013-02-22 22:56:00,
2013-02-22 17:01:00,33.8,29.2,29.87,SW,223,4.8,7.0,83,0.00,,,0.00,WUHU216HW,2013-02-22 23:01:00,
2013-02-22 17:06:00,33.8,29.2,29.87,SW,225,4.1,7.0,83,0.00,,,0.00,WUHU216HW,2013-02-22 23:06:00,
2013-02-22 17:11:00,33.8,29.2,29.88,SW,230,2.3,5.4,83,0.00,,,0.00,WUHU216HW,2013-02-22 23:11:00,
2013-02-22 17:16:00,33.8,29.2,29.88,SW,227,2.0,4.6,83,0.00,,,0.00,WUHU216HW,2013-02-22 23:16:00,
2013-02-22 17:21:00,33.7,28.7,29.88,SW,220,3.1,5.4,82,0.00,,,0.00,WUHU216HW,2013-02-22 23:21:00,
2013-02-22 17:26:00,33.7,28.7,29.89,SW,225,3.5,5.4,82,0.00,,,0.00,WUHU216HW,2013-02-22 23:26:00,
2013-02-22 17:31:00,33.5,28.3,29.89,SW,225,2.2,3.5,81,0.00,,,0.00,WUHU216HW,2013-02-22 23:31:00,
2013-02-22 17:36:00,33.5,28.5,29.89,SW,229,2.5,4.1,82,0.00,,,0.00,WUHU216HW,2013-02-22 23:36:00,
2013-02-22 17:41:00,33.5,28.3,29.89,WSW,248,3.7,7.6,81,0.00,,,0.00,WUHU216HW,2013-02-22 23:41:00,
2013-02-22 17:46:00,33.3,28.1,29.89,SW,235,2.3,7.6,81,0.00,,,0.00,WUHU216HW,2013-02-22 23:46:00,
2013-02-22 17:51:00,33.1,28.2,29.89,SW,233,1.7,3.7,82,0.00,,,0.00,WUHU216HW,2013-02-22 23:51:00,
2013-02-22 17:56:00,32.9,27.7,29.90,West,270,8.3,8.3,81,0.00,,,0.00,WUHU216HW,2013-02-22 23:56:00,
2013-02-22 18:01:00,32.8,27.3,29.90,WSW,247,4.3,11.3,80,0.00,,,0.00,WUHU216HW,2013-02-23 00:01:00,
2013-02-22 18:06:00,32.6,27.5,29.90,SW,225,3.0,11.3,81,0.00,,,0.00,WUHU216HW,2013-02-23 00:06:00,
2013-02-22 18:11:00,32.4,27.3,29.90,SSW,203,1.6,5.6,81,0.00,,,0.00,WUHU216HW,2013-02-23 00:11:00,
2013-02-22 18:16:00,32.2,27.1,29.91,WSW,240,1.9,5.6,81,0.00,,,0.00,WUHU216HW,2013-02-23 00:16:00,
2013-02-22 18:21:00,32.2,26.8,29.91,West,262,2.1,5.4,80,0.00,,,0.00,WUHU216HW,2013-02-23 00:21:00,
2013-02-22 18:26:00,32.0,26.6,29.91,SW,225,4.1,5.4,80,0.00,,,0.00,WUHU216HW,2013-02-23 00:26:00,
2013-02-22 18:31:00,31.9,25.8,29.91,WSW,254,5.5,7.2,78,0.00,,,0.00,WUHU216HW,2013-02-23 00:31:00,
2013-02-22 18:36:00,31.9,26.1,29.91,SW,225,4.1,7.2,79,0.00,,,0.00,WUHU216HW,2013-02-23 00:36:00,
2013-02-22 18:41:00,31.7,25.7,29.91,SW,218,3.5,6.1,78,0.00,,,0.00,WUHU216HW,2013-02-23 00:41:00,
2013-02-22 18:46:00,31.5,25.5,29.91,West,270,4.1,6.1,78,0.00,,,0.00,WUHU216HW,2013-02-23 00:46:00,
2013-02-22 18:51:00,31.3,25.3,29.92,SW,214,2.5,8.3,78,0.00,,,0.00,WUHU216HW,2013-02-23 00:51:00,
2013-02-22 18:56:00,31.3,25.3,29.92,WSW,238,2.1,8.3,78,0.00,,,0.00,WUHU216HW,2013-02-23 00:56:00,
2013-02-22 19:01:00,31.3,25.3,29.92,WSW,248,2.2,5.6,78,0.00,,,0.00,WUHU216HW,2013-02-23 01:01:00,
2013-02-22 19:06:00,31.3,25.3,29.92,SW,225,1.1,4.1,78,0.00,,,0.00,WUHU216HW,2013-02-23 01:06:00,
2013-02-22 19:11:00,31.1,25.1,29.92,SW,229,2.3,4.1,78,0.00,,,0.00,WUHU216HW,2013-02-23 01:11:00,
2013-02-22 19:16:00,31.1,25.1,29.92,SSW,212,1.0,4.1,78,0.00,,,0.00,WUHU216HW,2013-02-23 01:16:00,
2013-02-22 19:21:00,31.1,25.1,29.92,SW,226,0.9,2.4,78,0.00,,,0.00,WUHU216HW,2013-02-23 01:21:00,
2013-02-22 19:26:00,31.0,24.9,29.92,SSW,203,1.6,2.4,78,0.00,,,0.00,WUHU216HW,2013-02-23 01:26:00,
2013-02-22 19:31:00,31.0,24.9,29.92,SW,235,2.5,5.6,78,0.00,,,0.00,WUHU216HW,2013-02-23 01:31:00,
2013-02-22 19:36:00,31.0,24.9,29.92,WSW,248,3.7,6.5,78,0.00,,,0.00,WUHU216HW,2013-02-23 01:36:00,
2013-02-22 19:41:00,31.0,24.9,29.92,SW,233,2.4,6.5,78,0.00,,,0.00,WUHU216HW,2013-02-23 01:41:00,
2013-02-22 19:46:00,31.0,24.9,29.92,SW,225,2.6,4.1,78,0.00,,,0.00,WUHU216HW,2013-02-23 01:46:00,
2013-02-22 19:51:00,30.8,24.8,29.93,WSW,241,2.3,4.3,78,0.00,,,0.00,WUHU216HW,2013-02-23 01:51:00,
2013-02-22 19:56:00,30.8,24.8,29.93,SW,222,2.5,4.3,78,0.00,,,0.00,WUHU216HW,2013-02-23 01:56:00,
2013-02-22 20:01:00,30.8,24.8,29.93,SSW,203,3.5,3.5,78,0.00,,,0.00,WUHU216HW,2013-02-23 02:01:00,
2013-02-22 20:06:00,30.8,24.8,29.93,SW,230,1.6,3.5,78,0.00,,,0.00,WUHU216HW,2013-02-23 02:06:00,
2013-02-22 20:11:00,30.6,24.6,29.93,SSW,203,3.5,3.5,78,0.00,,,0.00,WUHU216HW,2013-02-23 02:11:00,
2013-02-22 20:16:00,30.6,24.6,29.93,SW,226,2.4,4.3,78,0.00,,,0.00,WUHU216HW,2013-02-23 02:16:00,
2013-02-22 20:21:00,30.6,24.6,29.93,SW,225,2.6,4.3,78,0.00,,,0.00,WUHU216HW,2013-02-23 02:21:00,
2013-02-22 20:26:00,30.6,24.6,29.93,SW,232,2.6,5.2,78,0.00,,,0.00,WUHU216HW,2013-02-23 02:26:00,
2013-02-22 20:31:00,30.6,24.8,29.93,SW,224,2.2,5.4,79,0.00,,,0.00,WUHU216HW,2013-02-23 02:31:00,
2013-02-22 20:36:00,30.4,24.7,29.93,SSW,203,1.9,5.4,79,0.00,,,0.00,WUHU216HW,2013-02-23 02:36:00,
2013-02-22 20:41:00,30.4,24.7,29.93,SSW,203,1.9,3.0,79,0.00,,,0.00,WUHU216HW,2013-02-23 02:41:00,
2013-02-22 20:46:00,30.4,24.7,29.93,SW,225,3.0,3.0,79,0.00,,,0.00,WUHU216HW,2013-02-23 02:46:00,
2013-02-22 20:51:00,30.2,24.5,29.93,SW,233,2.9,3.7,79,0.00,,,0.00,WUHU216HW,2013-02-23 02:51:00,
2013-02-22 20:56:00,30.2,24.5,29.93,SW,228,0.9,3.7,79,0.00,,,0.00,WUHU216HW,2013-02-23 02:56:00,
2013-02-22 21:01:00,30.2,24.8,29.93,SW,230,1.9,4.6,80,0.00,,,0.00,WUHU216HW,2013-02-23 03:01:00,
2013-02-22 21:06:00,30.1,24.3,29.93,WSW,238,1.8,4.6,79,0.00,,,0.00,WUHU216HW,2013-02-23 03:06:00,
2013-02-22 21:11:00,30.1,24.7,29.93,WSW,248,2.2,3.7,80,0.00,,,0.00,WUHU216HW,2013-02-23 03:11:00,
2013-02-22 21:16:00,30.1,24.7,29.93,SW,225,2.4,4.1,80,0.00,,,0.00,WUHU216HW,2013-02-23 03:16:00,
2013-02-22 21:21:00,30.1,24.7,29.93,SW,229,3.6,5.2,80,0.00,,,0.00,WUHU216HW,2013-02-23 03:21:00,
2013-02-22 21:26:00,29.9,24.5,29.93,SW,225,3.5,5.4,80,0.00,,,0.00,WUHU216HW,2013-02-23 03:26:00,
2013-02-22 21:31:00,29.9,24.5,29.93,SW,225,2.2,5.4,80,0.00,,,0.00,WUHU216HW,2013-02-23 03:31:00,
2013-02-22 21:36:00,29.9,24.5,29.93,West,270,7.0,7.0,80,0.00,,,0.00,WUHU216HW,2013-02-23 03:36:00,
2013-02-22 21:41:00,29.9,24.5,29.93,SW,225,2.4,7.0,80,0.00,,,0.00,WUHU216HW,2013-02-23 03:41:00,
2013-02-22 21:46:00,29.9,24.8,29.93,SW,219,2.8,7.0,81,0.00,,,0.00,WUHU216HW,2013-02-23 03:46:00,
2013-02-22 21:51:00,29.9,24.5,29.93,SW,225,1.9,3.5,80,0.00,,,0.00,WUHU216HW,2013-02-23 03:51:00,
2013-02-22 21:56:00,29.9,24.8,29.93,SSW,203,2.2,3.2,81,0.00,,,0.00,WUHU216HW,2013-02-23 03:56:00,
2013-02-22 22:01:00,29.7,24.6,29.93,WSW,248,2.2,3.0,81,0.00,,,0.00,WUHU216HW,2013-02-23 04:01:00,
2013-02-22 22:06:00,29.7,24.6,29.93,WSW,246,2.4,4.6,81,0.00,,,0.00,WUHU216HW,2013-02-23 04:06:00,
2013-02-22 22:11:00,29.7,24.8,29.93,SW,222,1.9,4.6,82,0.00,,,0.00,WUHU216HW,2013-02-23 04:11:00,
2013-02-22 22:16:00,29.5,24.7,29.93,SW,220,3.0,4.1,82,0.00,,,0.00,WUHU216HW,2013-02-23 04:16:00,
2013-02-22 22:21:00,29.5,24.7,29.93,SSW,207,4.1,7.6,82,0.00,,,0.00,WUHU216HW,2013-02-23 04:21:00,
2013-02-22 22:26:00,29.3,24.5,29.93,WSW,239,2.1,7.6,82,0.00,,,0.00,WUHU216HW,2013-02-23 04:26:00,
2013-02-22 22:31:00,29.3,24.5,29.93,WSW,248,2.6,3.5,82,0.00,,,0.00,WUHU216HW,2013-02-23 04:31:00,
2013-02-22 22:36:00,29.3,24.5,29.93,SW,225,1.9,4.1,82,0.00,,,0.00,WUHU216HW,2013-02-23 04:36:00,
2013-02-22 22:41:00,29.3,24.5,29.93,SW,225,1.5,4.1,82,0.00,,,0.00,WUHU216HW,2013-02-23 04:41:00,
2013-02-22 22:46:00,29.2,24.3,29.93,SW,225,2.2,3.7,82,0.00,,,0.00,WUHU216HW,2013-02-23 04:46:00,
2013-02-22 22:51:00,29.2,24.3,29.93,WSW,248,2.2,4.1,82,0.00,,,0.00,WUHU216HW,2013-02-23 04:51:00,
2013-02-22 22:56:00,29.2,24.3,29.93,SW,235,3.1,4.8,82,0.00,,,0.00,WUHU216HW,2013-02-23 04:56:00,
2013-02-22 23:00:00,29.2,24.3,29.93,SW,225,2.6,4.8,82,0.00,,,0.00,WUHU216HW,2013-02-23 05:00:00,
2013-02-22 23:05:00,29.2,24.3,29.93,WSW,248,3.0,3.5,82,0.00,,,0.00,WUHU216HW,2013-02-23 05:05:00,
2013-02-22 23:10:00,29.2,24.3,29.93,SSW,203,2.2,3.0,82,0.00,,,0.00,WUHU216HW,2013-02-23 05:10:00,
2013-02-22 23:15:00,29.2,24.3,29.93,WSW,241,1.9,3.0,82,0.00,,,0.00,WUHU216HW,2013-02-23 05:15:00,
2013-02-22 23:20:00,29.2,24.7,29.93,SW,225,1.9,3.0,83,0.00,,,0.00,WUHU216HW,2013-02-23 05:20:00,
2013-02-22 23:25:00,29.2,24.3,29.93,WSW,237,2.0,4.1,82,0.00,,,0.00,WUHU216HW,2013-02-23 05:25:00,
2013-02-22 23:30:00,29.0,24.5,29.93,WSW,248,3.7,4.1,83,0.00,,,0.00,WUHU216HW,2013-02-23 05:30:00,
2013-02-22 23:35:00,29.0,24.5,29.93,SW,225,1.9,4.8,83,0.00,,,0.00,WUHU216HW,2013-02-23 05:35:00,
2013-02-22 23:40:00,29.0,24.5,29.93,SW,231,2.5,4.8,83,0.00,,,0.00,WUHU216HW,2013-02-23 05:40:00,
2013-02-22 23:45:00,29.0,24.5,29.93,SW,219,2.1,4.1,83,0.00,,,0.00,WUHU216HW,2013-02-23 05:45:00,
2013-02-22 23:50:00,28.8,24.3,29.93,SW,221,2.4,4.1,83,0.00,,,0.00,WUHU216HW,2013-02-23 05:50:00,
2013-02-22 23:55:00,28.8,24.3,29.93,WSW,248,4.1,4.1,83,0.00,,,0.00,WUHU216HW,2013-02-23 05:55:00,